sensor_id;sensor_type;location;lat;lon;timestamp;P1;durP1;ratioP1;P2;durP2;ratioP2
4452;SDS011;2239;48.152;11.584;2023-09-18T00:00:00;3.70;;;2.23;;
4452;SDS011;2239;48.152;11.584;2023-09-18T00:02:26;4.53;;;2.33;;
4452;SDS011;2239;48.152;11.584;2023-09-18T00:04:53;7.27;;;3.23;;
4452;SDS011;2239;48.152;11.584;2023-09-18T00:07:18;6.07;;;2.87;;
4452;SDS011;2239;48.152;11.584;2023-09-18T00:09:44;5.17;;;2.50;;
4452;SDS011;2239;48.152;11.584;2023-09-18T00:12:09;5.13;;;2.50;;
4452;SDS011;2239;48.152;11.584;2023-09-18T00:14:35;4.27;;;2.40;;
4452;SDS011;2239;48.152;11.584;2023-09-18T00:17:01;6.90;;;3.10;;
4452;SDS011;2239;48.152;11.584;2023-09-18T00:19:27;5.50;;;3.20;;
4452;SDS011;2239;48.152;11.584;2023-09-18T00:21:53;4.10;;;2.57;;
4452;SDS011;2239;48.152;11.584;2023-09-18T00:24:19;4.47;;;2.60;;
4452;SDS011;2239;48.152;11.584;2023-09-18T00:26:45;3.97;;;2.67;;
4452;SDS011;2239;48.152;11.584;2023-09-18T00:29:12;5.90;;;2.50;;
4452;SDS011;2239;48.152;11.584;2023-09-18T00:31:37;3.43;;;2.10;;
4452;SDS011;2239;48.152;11.584;2023-09-18T00:34:03;5.90;;;2.60;;
4452;SDS011;2239;48.152;11.584;2023-09-18T00:36:28;4.83;;;2.53;;
4452;SDS011;2239;48.152;11.584;2023-09-18T00:38:54;4.27;;;2.67;;
4452;SDS011;2239;48.152;11.584;2023-09-18T00:41:19;3.53;;;2.40;;
4452;SDS011;2239;48.152;11.584;2023-09-18T00:43:45;4.40;;;2.00;;
4452;SDS011;2239;48.152;11.584;2023-09-18T00:46:10;7.70;;;2.63;;
4452;SDS011;2239;48.152;11.584;2023-09-18T00:48:36;4.27;;;2.03;;
4452;SDS011;2239;48.152;11.584;2023-09-18T00:51:02;6.40;;;2.93;;
4452;SDS011;2239;48.152;11.584;2023-09-18T00:53:27;3.33;;;2.13;;
4452;SDS011;2239;48.152;11.584;2023-09-18T00:55:54;5.43;;;2.57;;
4452;SDS011;2239;48.152;11.584;2023-09-18T00:58:22;4.10;;;2.50;;
4452;SDS011;2239;48.152;11.584;2023-09-18T01:00:48;4.07;;;2.00;;
4452;SDS011;2239;48.152;11.584;2023-09-18T01:03:18;3.80;;;2.30;;
4452;SDS011;2239;48.152;11.584;2023-09-18T01:05:45;3.93;;;2.30;;
4452;SDS011;2239;48.152;11.584;2023-09-18T01:08:11;4.30;;;2.43;;
4452;SDS011;2239;48.152;11.584;2023-09-18T01:10:40;5.83;;;2.30;;
4452;SDS011;2239;48.152;11.584;2023-09-18T01:13:23;4.17;;;2.20;;
4452;SDS011;2239;48.152;11.584;2023-09-18T01:16:07;3.90;;;2.10;;
4452;SDS011;2239;48.152;11.584;2023-09-18T01:18:48;3.37;;;2.40;;
4452;SDS011;2239;48.152;11.584;2023-09-18T01:21:14;4.27;;;2.40;;
4452;SDS011;2239;48.152;11.584;2023-09-18T01:23:39;3.30;;;2.33;;
4452;SDS011;2239;48.152;11.584;2023-09-18T01:26:05;3.80;;;1.83;;
4452;SDS011;2239;48.152;11.584;2023-09-18T01:28:31;2.67;;;1.73;;
4452;SDS011;2239;48.152;11.584;2023-09-18T01:30:56;6.13;;;2.40;;
4452;SDS011;2239;48.152;11.584;2023-09-18T01:33:22;5.00;;;2.40;;
4452;SDS011;2239;48.152;11.584;2023-09-18T01:35:48;4.00;;;2.27;;
4452;SDS011;2239;48.152;11.584;2023-09-18T01:38:15;3.80;;;2.30;;
4452;SDS011;2239;48.152;11.584;2023-09-18T01:40:41;4.30;;;1.90;;
4452;SDS011;2239;48.152;11.584;2023-09-18T01:43:07;3.27;;;2.10;;
4452;SDS011;2239;48.152;11.584;2023-09-18T01:45:32;3.20;;;1.97;;
4452;SDS011;2239;48.152;11.584;2023-09-18T01:47:58;2.87;;;1.70;;
4452;SDS011;2239;48.152;11.584;2023-09-18T01:50:23;3.23;;;1.80;;
4452;SDS011;2239;48.152;11.584;2023-09-18T01:52:49;5.13;;;1.80;;
4452;SDS011;2239;48.152;11.584;2023-09-18T01:55:15;3.27;;;1.93;;
4452;SDS011;2239;48.152;11.584;2023-09-18T01:57:40;5.07;;;2.10;;
4452;SDS011;2239;48.152;11.584;2023-09-18T02:00:07;2.80;;;1.77;;
4452;SDS011;2239;48.152;11.584;2023-09-18T02:02:34;5.50;;;2.03;;
4452;SDS011;2239;48.152;11.584;2023-09-18T02:05:00;2.80;;;1.80;;
4452;SDS011;2239;48.152;11.584;2023-09-18T02:07:27;5.40;;;2.20;;
4452;SDS011;2239;48.152;11.584;2023-09-18T02:09:52;4.03;;;2.17;;
4452;SDS011;2239;48.152;11.584;2023-09-18T02:12:18;4.80;;;2.10;;
4452;SDS011;2239;48.152;11.584;2023-09-18T02:14:44;2.67;;;1.83;;
4452;SDS011;2239;48.152;11.584;2023-09-18T02:17:10;5.93;;;2.13;;
4452;SDS011;2239;48.152;11.584;2023-09-18T02:19:35;5.70;;;1.97;;
4452;SDS011;2239;48.152;11.584;2023-09-18T02:22:01;3.80;;;1.50;;
4452;SDS011;2239;48.152;11.584;2023-09-18T02:24:27;2.50;;;1.67;;
4452;SDS011;2239;48.152;11.584;2023-09-18T02:26:53;5.73;;;2.40;;
4452;SDS011;2239;48.152;11.584;2023-09-18T02:29:18;5.30;;;2.20;;
4452;SDS011;2239;48.152;11.584;2023-09-18T02:31:44;3.83;;;1.93;;
4452;SDS011;2239;48.152;11.584;2023-09-18T02:34:09;6.67;;;2.13;;
4452;SDS011;2239;48.152;11.584;2023-09-18T02:36:35;4.60;;;2.40;;
4452;SDS011;2239;48.152;11.584;2023-09-18T02:39:01;2.63;;;1.80;;
4452;SDS011;2239;48.152;11.584;2023-09-18T02:41:27;2.40;;;1.73;;
4452;SDS011;2239;48.152;11.584;2023-09-18T02:43:53;4.63;;;2.23;;
4452;SDS011;2239;48.152;11.584;2023-09-18T02:46:18;3.43;;;1.97;;
4452;SDS011;2239;48.152;11.584;2023-09-18T02:48:44;4.27;;;2.50;;
4452;SDS011;2239;48.152;11.584;2023-09-18T02:51:09;4.40;;;2.20;;
4452;SDS011;2239;48.152;11.584;2023-09-18T02:53:35;4.03;;;1.90;;
4452;SDS011;2239;48.152;11.584;2023-09-18T02:56:00;4.33;;;2.00;;
4452;SDS011;2239;48.152;11.584;2023-09-18T02:58:26;2.83;;;1.93;;
4452;SDS011;2239;48.152;11.584;2023-09-18T03:00:54;2.50;;;2.00;;
4452;SDS011;2239;48.152;11.584;2023-09-18T03:03:20;2.90;;;1.83;;
4452;SDS011;2239;48.152;11.584;2023-09-18T03:05:46;5.10;;;1.77;;
4452;SDS011;2239;48.152;11.584;2023-09-18T03:08:12;3.90;;;2.13;;
4452;SDS011;2239;48.152;11.584;2023-09-18T03:10:39;3.60;;;2.00;;
4452;SDS011;2239;48.152;11.584;2023-09-18T03:13:06;2.30;;;1.93;;
4452;SDS011;2239;48.152;11.584;2023-09-18T03:15:33;2.57;;;1.77;;
4452;SDS011;2239;48.152;11.584;2023-09-18T03:17:59;4.47;;;2.20;;
4452;SDS011;2239;48.152;11.584;2023-09-18T03:20:26;3.70;;;2.00;;
4452;SDS011;2239;48.152;11.584;2023-09-18T03:22:53;3.07;;;1.77;;
4452;SDS011;2239;48.152;11.584;2023-09-18T03:25:20;3.20;;;2.00;;
4452;SDS011;2239;48.152;11.584;2023-09-18T03:27:46;5.70;;;2.23;;
4452;SDS011;2239;48.152;11.584;2023-09-18T03:30:12;3.80;;;1.93;;
4452;SDS011;2239;48.152;11.584;2023-09-18T03:32:40;7.30;;;2.33;;
4452;SDS011;2239;48.152;11.584;2023-09-18T03:35:06;5.50;;;2.43;;
4452;SDS011;2239;48.152;11.584;2023-09-18T03:37:34;5.77;;;2.43;;
4452;SDS011;2239;48.152;11.584;2023-09-18T03:40:00;3.00;;;1.87;;
4452;SDS011;2239;48.152;11.584;2023-09-18T03:42:26;5.40;;;2.40;;
4452;SDS011;2239;48.152;11.584;2023-09-18T03:44:52;6.63;;;2.10;;
4452;SDS011;2239;48.152;11.584;2023-09-18T03:47:17;3.37;;;1.97;;
4452;SDS011;2239;48.152;11.584;2023-09-18T03:49:43;3.37;;;1.90;;
4452;SDS011;2239;48.152;11.584;2023-09-18T03:52:08;3.50;;;1.97;;
4452;SDS011;2239;48.152;11.584;2023-09-18T03:54:34;5.63;;;2.00;;
4452;SDS011;2239;48.152;11.584;2023-09-18T03:57:00;2.57;;;1.80;;
4452;SDS011;2239;48.152;11.584;2023-09-18T03:59:25;3.70;;;2.10;;
4452;SDS011;2239;48.152;11.584;2023-09-18T04:01:51;6.37;;;2.63;;
4452;SDS011;2239;48.152;11.584;2023-09-18T04:04:16;4.27;;;1.70;;
4452;SDS011;2239;48.152;11.584;2023-09-18T04:06:42;4.93;;;2.10;;
4452;SDS011;2239;48.152;11.584;2023-09-18T04:09:09;5.50;;;2.10;;
4452;SDS011;2239;48.152;11.584;2023-09-18T04:11:35;2.53;;;1.97;;
4452;SDS011;2239;48.152;11.584;2023-09-18T04:14:01;9.27;;;2.70;;
4452;SDS011;2239;48.152;11.584;2023-09-18T04:16:28;4.60;;;2.03;;
4452;SDS011;2239;48.152;11.584;2023-09-18T04:18:55;5.00;;;2.20;;
4452;SDS011;2239;48.152;11.584;2023-09-18T04:21:21;2.60;;;1.83;;
4452;SDS011;2239;48.152;11.584;2023-09-18T04:23:47;2.60;;;1.93;;
4452;SDS011;2239;48.152;11.584;2023-09-18T04:26:13;3.97;;;2.27;;
4452;SDS011;2239;48.152;11.584;2023-09-18T04:28:40;4.60;;;2.10;;
4452;SDS011;2239;48.152;11.584;2023-09-18T04:31:06;3.10;;;2.00;;
4452;SDS011;2239;48.152;11.584;2023-09-18T04:33:32;3.00;;;2.07;;
4452;SDS011;2239;48.152;11.584;2023-09-18T04:35:58;5.50;;;2.13;;
4452;SDS011;2239;48.152;11.584;2023-09-18T04:38:23;5.83;;;1.90;;
4452;SDS011;2239;48.152;11.584;2023-09-18T04:40:49;4.33;;;2.13;;
4452;SDS011;2239;48.152;11.584;2023-09-18T04:43:22;3.20;;;2.03;;
4452;SDS011;2239;48.152;11.584;2023-09-18T04:45:48;3.70;;;2.00;;
4452;SDS011;2239;48.152;11.584;2023-09-18T04:48:14;5.20;;;1.97;;
4452;SDS011;2239;48.152;11.584;2023-09-18T04:50:39;12.20;;;2.40;;
4452;SDS011;2239;48.152;11.584;2023-09-18T04:53:05;3.90;;;2.07;;
4452;SDS011;2239;48.152;11.584;2023-09-18T04:55:30;3.27;;;1.77;;
4452;SDS011;2239;48.152;11.584;2023-09-18T04:57:56;2.87;;;1.70;;
4452;SDS011;2239;48.152;11.584;2023-09-18T05:00:23;4.90;;;2.23;;
4452;SDS011;2239;48.152;11.584;2023-09-18T05:02:51;2.60;;;1.63;;
4452;SDS011;2239;48.152;11.584;2023-09-18T05:05:17;3.30;;;2.23;;
4452;SDS011;2239;48.152;11.584;2023-09-18T05:07:43;3.90;;;1.90;;
4452;SDS011;2239;48.152;11.584;2023-09-18T05:10:09;3.43;;;2.10;;
4452;SDS011;2239;48.152;11.584;2023-09-18T05:12:35;5.23;;;2.10;;
4452;SDS011;2239;48.152;11.584;2023-09-18T05:15:00;5.93;;;2.60;;
4452;SDS011;2239;48.152;11.584;2023-09-18T05:17:43;4.83;;;2.10;;
4452;SDS011;2239;48.152;11.584;2023-09-18T05:20:17;6.70;;;2.50;;
4452;SDS011;2239;48.152;11.584;2023-09-18T05:22:43;5.73;;;1.90;;
4452;SDS011;2239;48.152;11.584;2023-09-18T05:25:09;5.23;;;2.10;;
4452;SDS011;2239;48.152;11.584;2023-09-18T05:27:36;6.30;;;2.80;;
4452;SDS011;2239;48.152;11.584;2023-09-18T05:30:09;6.90;;;2.23;;
4452;SDS011;2239;48.152;11.584;2023-09-18T05:32:46;2.57;;;2.10;;
4452;SDS011;2239;48.152;11.584;2023-09-18T05:35:13;3.43;;;1.80;;
4452;SDS011;2239;48.152;11.584;2023-09-18T05:37:39;4.53;;;1.70;;
4452;SDS011;2239;48.152;11.584;2023-09-18T05:40:06;3.90;;;1.77;;
4452;SDS011;2239;48.152;11.584;2023-09-18T05:42:34;6.40;;;2.30;;
4452;SDS011;2239;48.152;11.584;2023-09-18T05:45:04;4.23;;;2.30;;
4452;SDS011;2239;48.152;11.584;2023-09-18T05:47:33;4.43;;;1.90;;
4452;SDS011;2239;48.152;11.584;2023-09-18T05:50:00;9.23;;;2.20;;
4452;SDS011;2239;48.152;11.584;2023-09-18T05:52:29;3.20;;;1.70;;
4452;SDS011;2239;48.152;11.584;2023-09-18T05:54:55;6.37;;;2.17;;
4452;SDS011;2239;48.152;11.584;2023-09-18T05:57:21;4.83;;;2.17;;
4452;SDS011;2239;48.152;11.584;2023-09-18T05:59:46;3.50;;;1.90;;
4452;SDS011;2239;48.152;11.584;2023-09-18T06:02:12;2.50;;;1.67;;
4452;SDS011;2239;48.152;11.584;2023-09-18T06:04:38;4.70;;;2.10;;
4452;SDS011;2239;48.152;11.584;2023-09-18T06:07:04;5.27;;;1.93;;
4452;SDS011;2239;48.152;11.584;2023-09-18T06:09:29;3.83;;;2.17;;
4452;SDS011;2239;48.152;11.584;2023-09-18T06:11:55;11.67;;;2.40;;
4452;SDS011;2239;48.152;11.584;2023-09-18T06:14:20;4.57;;;1.90;;
4452;SDS011;2239;48.152;11.584;2023-09-18T06:16:46;3.73;;;2.13;;
4452;SDS011;2239;48.152;11.584;2023-09-18T06:19:12;3.70;;;1.87;;
4452;SDS011;2239;48.152;11.584;2023-09-18T06:21:38;5.07;;;1.93;;
4452;SDS011;2239;48.152;11.584;2023-09-18T06:24:04;4.10;;;2.27;;
4452;SDS011;2239;48.152;11.584;2023-09-18T06:26:29;5.20;;;2.33;;
4452;SDS011;2239;48.152;11.584;2023-09-18T06:28:55;4.67;;;1.87;;
4452;SDS011;2239;48.152;11.584;2023-09-18T06:31:20;4.70;;;2.80;;
4452;SDS011;2239;48.152;11.584;2023-09-18T06:33:46;4.37;;;2.10;;
4452;SDS011;2239;48.152;11.584;2023-09-18T06:36:13;5.57;;;2.53;;
4452;SDS011;2239;48.152;11.584;2023-09-18T06:38:38;4.60;;;2.37;;
4452;SDS011;2239;48.152;11.584;2023-09-18T06:41:04;6.00;;;3.00;;
4452;SDS011;2239;48.152;11.584;2023-09-18T06:43:30;3.40;;;2.00;;
4452;SDS011;2239;48.152;11.584;2023-09-18T06:45:55;5.40;;;2.50;;
4452;SDS011;2239;48.152;11.584;2023-09-18T06:48:22;5.43;;;2.93;;
4452;SDS011;2239;48.152;11.584;2023-09-18T06:50:48;6.13;;;2.50;;
4452;SDS011;2239;48.152;11.584;2023-09-18T06:53:14;4.93;;;2.57;;
4452;SDS011;2239;48.152;11.584;2023-09-18T06:55:40;5.97;;;2.80;;
4452;SDS011;2239;48.152;11.584;2023-09-18T06:58:05;8.43;;;2.90;;
4452;SDS011;2239;48.152;11.584;2023-09-18T07:00:31;6.20;;;2.63;;
4452;SDS011;2239;48.152;11.584;2023-09-18T07:02:56;5.13;;;2.90;;
4452;SDS011;2239;48.152;11.584;2023-09-18T07:05:22;6.40;;;2.40;;
4452;SDS011;2239;48.152;11.584;2023-09-18T07:07:48;4.97;;;2.33;;
4452;SDS011;2239;48.152;11.584;2023-09-18T07:10:13;3.60;;;2.23;;
4452;SDS011;2239;48.152;11.584;2023-09-18T07:12:44;5.67;;;2.60;;
4452;SDS011;2239;48.152;11.584;2023-09-18T07:15:09;4.40;;;2.40;;
4452;SDS011;2239;48.152;11.584;2023-09-18T07:17:35;5.70;;;2.00;;
4452;SDS011;2239;48.152;11.584;2023-09-18T07:20:01;4.23;;;2.20;;
4452;SDS011;2239;48.152;11.584;2023-09-18T07:22:34;6.13;;;2.20;;
4452;SDS011;2239;48.152;11.584;2023-09-18T07:25:00;4.17;;;2.33;;
4452;SDS011;2239;48.152;11.584;2023-09-18T07:27:25;3.83;;;2.43;;
4452;SDS011;2239;48.152;11.584;2023-09-18T07:29:51;4.70;;;2.63;;
4452;SDS011;2239;48.152;11.584;2023-09-18T07:32:16;6.47;;;2.60;;
4452;SDS011;2239;48.152;11.584;2023-09-18T07:34:42;5.77;;;2.57;;
4452;SDS011;2239;48.152;11.584;2023-09-18T07:37:08;6.70;;;2.60;;
4452;SDS011;2239;48.152;11.584;2023-09-18T07:39:33;5.57;;;2.50;;
4452;SDS011;2239;48.152;11.584;2023-09-18T07:41:59;4.00;;;2.40;;
4452;SDS011;2239;48.152;11.584;2023-09-18T07:44:25;5.67;;;2.83;;
4452;SDS011;2239;48.152;11.584;2023-09-18T07:46:51;4.50;;;3.00;;
4452;SDS011;2239;48.152;11.584;2023-09-18T07:49:19;8.80;;;2.90;;
4452;SDS011;2239;48.152;11.584;2023-09-18T07:51:45;5.83;;;2.87;;
4452;SDS011;2239;48.152;11.584;2023-09-18T07:54:13;6.70;;;2.97;;
4452;SDS011;2239;48.152;11.584;2023-09-18T07:56:41;4.27;;;2.70;;
4452;SDS011;2239;48.152;11.584;2023-09-18T07:59:08;7.47;;;2.60;;
4452;SDS011;2239;48.152;11.584;2023-09-18T08:01:35;5.00;;;3.13;;
4452;SDS011;2239;48.152;11.584;2023-09-18T08:04:00;5.87;;;3.00;;
4452;SDS011;2239;48.152;11.584;2023-09-18T08:06:26;7.83;;;2.90;;
4452;SDS011;2239;48.152;11.584;2023-09-18T08:08:53;5.70;;;2.73;;
4452;SDS011;2239;48.152;11.584;2023-09-18T08:11:18;6.70;;;2.97;;
4452;SDS011;2239;48.152;11.584;2023-09-18T08:13:45;3.60;;;2.50;;
4452;SDS011;2239;48.152;11.584;2023-09-18T08:16:11;4.40;;;2.83;;
4452;SDS011;2239;48.152;11.584;2023-09-18T08:18:38;9.93;;;2.67;;
4452;SDS011;2239;48.152;11.584;2023-09-18T08:21:06;6.70;;;2.63;;
4452;SDS011;2239;48.152;11.584;2023-09-18T08:23:34;4.87;;;2.80;;
4452;SDS011;2239;48.152;11.584;2023-09-18T08:26:03;8.17;;;2.97;;
4452;SDS011;2239;48.152;11.584;2023-09-18T08:28:29;5.27;;;2.37;;
4452;SDS011;2239;48.152;11.584;2023-09-18T08:30:55;5.20;;;2.73;;
4452;SDS011;2239;48.152;11.584;2023-09-18T08:33:21;7.10;;;2.77;;
4452;SDS011;2239;48.152;11.584;2023-09-18T08:35:46;4.53;;;2.90;;
4452;SDS011;2239;48.152;11.584;2023-09-18T08:38:14;3.13;;;2.47;;
4452;SDS011;2239;48.152;11.584;2023-09-18T08:40:40;4.50;;;3.10;;
4452;SDS011;2239;48.152;11.584;2023-09-18T08:43:10;6.10;;;2.97;;
4452;SDS011;2239;48.152;11.584;2023-09-18T08:45:54;6.10;;;2.63;;
4452;SDS011;2239;48.152;11.584;2023-09-18T08:48:26;8.37;;;3.00;;
4452;SDS011;2239;48.152;11.584;2023-09-18T08:50:59;3.70;;;2.50;;
4452;SDS011;2239;48.152;11.584;2023-09-18T08:53:33;5.23;;;3.50;;
4452;SDS011;2239;48.152;11.584;2023-09-18T08:56:00;7.73;;;3.93;;
4452;SDS011;2239;48.152;11.584;2023-09-18T08:58:31;4.07;;;2.53;;
4452;SDS011;2239;48.152;11.584;2023-09-18T09:01:00;4.67;;;2.90;;
4452;SDS011;2239;48.152;11.584;2023-09-18T09:03:31;6.10;;;3.20;;
4452;SDS011;2239;48.152;11.584;2023-09-18T09:05:59;6.27;;;3.17;;
4452;SDS011;2239;48.152;11.584;2023-09-18T09:08:27;5.20;;;2.90;;
4452;SDS011;2239;48.152;11.584;2023-09-18T09:10:53;5.63;;;2.77;;
4452;SDS011;2239;48.152;11.584;2023-09-18T09:13:19;8.40;;;3.30;;
4452;SDS011;2239;48.152;11.584;2023-09-18T09:15:51;8.97;;;4.00;;
4452;SDS011;2239;48.152;11.584;2023-09-18T09:18:23;6.83;;;3.07;;
4452;SDS011;2239;48.152;11.584;2023-09-18T09:23:23;4.60;;;2.93;;
4452;SDS011;2239;48.152;11.584;2023-09-18T09:25:53;4.97;;;3.10;;
4452;SDS011;2239;48.152;11.584;2023-09-18T09:28:31;7.53;;;2.93;;
4452;SDS011;2239;48.152;11.584;2023-09-18T09:31:00;13.83;;;3.50;;
4452;SDS011;2239;48.152;11.584;2023-09-18T09:33:27;5.50;;;2.60;;
4452;SDS011;2239;48.152;11.584;2023-09-18T09:35:54;6.40;;;2.80;;
4452;SDS011;2239;48.152;11.584;2023-09-18T09:38:22;6.03;;;3.10;;
4452;SDS011;2239;48.152;11.584;2023-09-18T09:40:53;3.80;;;2.67;;
4452;SDS011;2239;48.152;11.584;2023-09-18T09:43:19;7.37;;;2.80;;
4452;SDS011;2239;48.152;11.584;2023-09-18T09:45:45;5.50;;;2.60;;
4452;SDS011;2239;48.152;11.584;2023-09-18T09:48:11;6.60;;;2.90;;
4452;SDS011;2239;48.152;11.584;2023-09-18T09:50:44;7.30;;;2.90;;
4452;SDS011;2239;48.152;11.584;2023-09-18T09:53:11;4.50;;;2.67;;
4452;SDS011;2239;48.152;11.584;2023-09-18T09:55:38;7.10;;;2.73;;
4452;SDS011;2239;48.152;11.584;2023-09-18T09:58:05;4.93;;;2.30;;
4452;SDS011;2239;48.152;11.584;2023-09-18T10:00:43;5.80;;;3.10;;
4452;SDS011;2239;48.152;11.584;2023-09-18T10:03:17;7.53;;;2.73;;
4452;SDS011;2239;48.152;11.584;2023-09-18T10:05:46;3.90;;;2.33;;
4452;SDS011;2239;48.152;11.584;2023-09-18T10:08:22;10.67;;;2.77;;
4452;SDS011;2239;48.152;11.584;2023-09-18T10:10:52;4.80;;;2.60;;
4452;SDS011;2239;48.152;11.584;2023-09-18T10:15:56;4.03;;;2.50;;
4452;SDS011;2239;48.152;11.584;2023-09-18T10:20:56;4.73;;;2.70;;
4452;SDS011;2239;48.152;11.584;2023-09-18T10:23:32;5.53;;;2.47;;
4452;SDS011;2239;48.152;11.584;2023-09-18T10:26:23;5.83;;;2.40;;
4452;SDS011;2239;48.152;11.584;2023-09-18T10:28:51;4.97;;;2.30;;
4452;SDS011;2239;48.152;11.584;2023-09-18T10:31:21;5.00;;;2.23;;
4452;SDS011;2239;48.152;11.584;2023-09-18T10:33:48;3.50;;;2.10;;
4452;SDS011;2239;48.152;11.584;2023-09-18T10:36:15;6.23;;;2.13;;
4452;SDS011;2239;48.152;11.584;2023-09-18T10:38:43;7.93;;;2.50;;
4452;SDS011;2239;48.152;11.584;2023-09-18T10:41:14;5.33;;;2.10;;
4452;SDS011;2239;48.152;11.584;2023-09-18T10:43:42;3.67;;;2.00;;
4452;SDS011;2239;48.152;11.584;2023-09-18T10:46:09;4.90;;;2.43;;
4452;SDS011;2239;48.152;11.584;2023-09-18T10:48:35;3.33;;;2.00;;
4452;SDS011;2239;48.152;11.584;2023-09-18T10:51:01;4.97;;;2.03;;
4452;SDS011;2239;48.152;11.584;2023-09-18T10:53:31;6.30;;;1.80;;
4452;SDS011;2239;48.152;11.584;2023-09-18T10:55:57;5.20;;;2.10;;
4452;SDS011;2239;48.152;11.584;2023-09-18T10:58:23;6.37;;;2.23;;
4452;SDS011;2239;48.152;11.584;2023-09-18T11:00:50;3.60;;;1.80;;
4452;SDS011;2239;48.152;11.584;2023-09-18T11:03:16;9.00;;;1.90;;
4452;SDS011;2239;48.152;11.584;2023-09-18T11:05:46;5.10;;;2.13;;
4452;SDS011;2239;48.152;11.584;2023-09-18T11:08:28;5.10;;;2.00;;
4452;SDS011;2239;48.152;11.584;2023-09-18T11:11:08;7.10;;;2.23;;
4452;SDS011;2239;48.152;11.584;2023-09-18T11:13:44;8.77;;;2.60;;
4452;SDS011;2239;48.152;11.584;2023-09-18T11:18:47;10.73;;;2.00;;
4452;SDS011;2239;48.152;11.584;2023-09-18T11:21:17;6.90;;;2.53;;
4452;SDS011;2239;48.152;11.584;2023-09-18T11:23:48;6.43;;;1.80;;
4452;SDS011;2239;48.152;11.584;2023-09-18T11:26:37;7.33;;;1.97;;
4452;SDS011;2239;48.152;11.584;2023-09-18T11:29:07;8.30;;;2.13;;
4452;SDS011;2239;48.152;11.584;2023-09-18T11:31:45;8.17;;;1.63;;
4452;SDS011;2239;48.152;11.584;2023-09-18T11:34:28;3.70;;;1.60;;
4452;SDS011;2239;48.152;11.584;2023-09-18T11:37:01;2.97;;;1.60;;
4452;SDS011;2239;48.152;11.584;2023-09-18T11:39:43;4.20;;;1.90;;
4452;SDS011;2239;48.152;11.584;2023-09-18T11:42:15;4.00;;;1.83;;
4452;SDS011;2239;48.152;11.584;2023-09-18T11:44:45;4.63;;;1.77;;
4452;SDS011;2239;48.152;11.584;2023-09-18T11:47:14;3.83;;;1.90;;
4452;SDS011;2239;48.152;11.584;2023-09-18T11:49:51;3.30;;;1.57;;
4452;SDS011;2239;48.152;11.584;2023-09-18T11:52:23;7.47;;;1.20;;
4452;SDS011;2239;48.152;11.584;2023-09-18T11:54:50;2.37;;;1.30;;
4452;SDS011;2239;48.152;11.584;2023-09-18T11:57:17;2.70;;;1.40;;
4452;SDS011;2239;48.152;11.584;2023-09-18T11:59:43;2.53;;;1.17;;
4452;SDS011;2239;48.152;11.584;2023-09-18T12:02:11;4.83;;;1.40;;
4452;SDS011;2239;48.152;11.584;2023-09-18T12:04:56;1.00;;;0.90;;
4452;SDS011;2239;48.152;11.584;2023-09-18T12:07:21;2.20;;;1.00;;
4452;SDS011;2239;48.152;11.584;2023-09-18T12:09:47;3.57;;;1.20;;
4452;SDS011;2239;48.152;11.584;2023-09-18T12:12:14;3.40;;;1.23;;
4452;SDS011;2239;48.152;11.584;2023-09-18T12:14:41;1.67;;;1.00;;
4452;SDS011;2239;48.152;11.584;2023-09-18T12:17:13;2.70;;;1.17;;
4452;SDS011;2239;48.152;11.584;2023-09-18T12:19:50;2.60;;;1.03;;
4452;SDS011;2239;48.152;11.584;2023-09-18T12:22:25;4.13;;;1.33;;
4452;SDS011;2239;48.152;11.584;2023-09-18T12:24:52;3.30;;;1.00;;
4452;SDS011;2239;48.152;11.584;2023-09-18T12:27:18;1.63;;;1.00;;
4452;SDS011;2239;48.152;11.584;2023-09-18T12:29:44;3.73;;;1.20;;
4452;SDS011;2239;48.152;11.584;2023-09-18T12:32:09;1.10;;;0.80;;
4452;SDS011;2239;48.152;11.584;2023-09-18T12:34:40;3.90;;;1.30;;
4452;SDS011;2239;48.152;11.584;2023-09-18T12:37:06;1.47;;;1.10;;
4452;SDS011;2239;48.152;11.584;2023-09-18T12:39:34;1.23;;;1.10;;
4452;SDS011;2239;48.152;11.584;2023-09-18T12:42:00;2.40;;;1.13;;
4452;SDS011;2239;48.152;11.584;2023-09-18T12:44:26;1.10;;;1.00;;
4452;SDS011;2239;48.152;11.584;2023-09-18T12:46:52;5.93;;;1.43;;
4452;SDS011;2239;48.152;11.584;2023-09-18T12:49:18;1.37;;;1.13;;
4452;SDS011;2239;48.152;11.584;2023-09-18T12:51:58;2.30;;;1.20;;
4452;SDS011;2239;48.152;11.584;2023-09-18T12:57:07;1.90;;;1.00;;
4452;SDS011;2239;48.152;11.584;2023-09-18T12:59:35;1.70;;;1.00;;
4452;SDS011;2239;48.152;11.584;2023-09-18T13:02:03;1.27;;;0.83;;
4452;SDS011;2239;48.152;11.584;2023-09-18T13:04:33;2.07;;;0.90;;
4452;SDS011;2239;48.152;11.584;2023-09-18T13:07:09;0.93;;;0.83;;
4452;SDS011;2239;48.152;11.584;2023-09-18T13:09:37;1.30;;;0.90;;
4452;SDS011;2239;48.152;11.584;2023-09-18T13:12:03;2.40;;;0.80;;
4452;SDS011;2239;48.152;11.584;2023-09-18T13:14:29;1.40;;;0.83;;
4452;SDS011;2239;48.152;11.584;2023-09-18T13:17:01;1.87;;;1.00;;
4452;SDS011;2239;48.152;11.584;2023-09-18T13:19:29;5.13;;;1.20;;
4452;SDS011;2239;48.152;11.584;2023-09-18T13:21:55;1.70;;;1.17;;
4452;SDS011;2239;48.152;11.584;2023-09-18T13:24:39;1.53;;;0.73;;
4452;SDS011;2239;48.152;11.584;2023-09-18T13:27:04;1.13;;;0.90;;
4452;SDS011;2239;48.152;11.584;2023-09-18T13:29:30;2.80;;;1.67;;
4452;SDS011;2239;48.152;11.584;2023-09-18T13:31:55;1.60;;;0.90;;
4452;SDS011;2239;48.152;11.584;2023-09-18T13:34:21;3.17;;;0.90;;
4452;SDS011;2239;48.152;11.584;2023-09-18T13:36:47;4.13;;;1.30;;
4452;SDS011;2239;48.152;11.584;2023-09-18T13:39:13;1.23;;;0.90;;
4452;SDS011;2239;48.152;11.584;2023-09-18T13:41:42;1.47;;;0.90;;
4452;SDS011;2239;48.152;11.584;2023-09-18T13:44:07;2.60;;;0.80;;
4452;SDS011;2239;48.152;11.584;2023-09-18T13:46:34;2.67;;;1.40;;
4452;SDS011;2239;48.152;11.584;2023-09-18T13:49:01;1.20;;;0.80;;
4452;SDS011;2239;48.152;11.584;2023-09-18T13:51:28;1.03;;;0.83;;
4452;SDS011;2239;48.152;11.584;2023-09-18T13:53:55;1.80;;;1.10;;
4452;SDS011;2239;48.152;11.584;2023-09-18T13:56:21;1.30;;;0.90;;
4452;SDS011;2239;48.152;11.584;2023-09-18T13:58:47;1.23;;;0.80;;
4452;SDS011;2239;48.152;11.584;2023-09-18T14:01:13;2.17;;;1.00;;
4452;SDS011;2239;48.152;11.584;2023-09-18T14:03:40;0.80;;;0.70;;
4452;SDS011;2239;48.152;11.584;2023-09-18T14:06:08;1.17;;;0.73;;
4452;SDS011;2239;48.152;11.584;2023-09-18T14:08:34;2.13;;;0.83;;
4452;SDS011;2239;48.152;11.584;2023-09-18T14:11:00;1.53;;;0.90;;
4452;SDS011;2239;48.152;11.584;2023-09-18T14:13:25;1.80;;;1.23;;
4452;SDS011;2239;48.152;11.584;2023-09-18T14:15:51;2.00;;;0.80;;
4452;SDS011;2239;48.152;11.584;2023-09-18T14:18:16;1.83;;;0.70;;
4452;SDS011;2239;48.152;11.584;2023-09-18T14:20:42;1.33;;;0.83;;
4452;SDS011;2239;48.152;11.584;2023-09-18T14:23:07;2.30;;;0.90;;
4452;SDS011;2239;48.152;11.584;2023-09-18T14:25:33;1.30;;;0.80;;
4452;SDS011;2239;48.152;11.584;2023-09-18T14:27:58;1.70;;;1.00;;
4452;SDS011;2239;48.152;11.584;2023-09-18T14:30:24;3.00;;;1.10;;
4452;SDS011;2239;48.152;11.584;2023-09-18T14:32:55;1.30;;;1.20;;
4452;SDS011;2239;48.152;11.584;2023-09-18T14:35:20;0.90;;;0.80;;
4452;SDS011;2239;48.152;11.584;2023-09-18T14:37:48;1.17;;;1.00;;
4452;SDS011;2239;48.152;11.584;2023-09-18T14:40:15;1.67;;;0.80;;
4452;SDS011;2239;48.152;11.584;2023-09-18T14:42:41;2.63;;;0.77;;
4452;SDS011;2239;48.152;11.584;2023-09-18T14:45:07;1.60;;;0.80;;
4452;SDS011;2239;48.152;11.584;2023-09-18T14:47:33;1.37;;;0.90;;
4452;SDS011;2239;48.152;11.584;2023-09-18T14:49:59;1.50;;;0.80;;
4452;SDS011;2239;48.152;11.584;2023-09-18T14:52:26;1.57;;;0.90;;
4452;SDS011;2239;48.152;11.584;2023-09-18T14:54:52;1.40;;;0.90;;
4452;SDS011;2239;48.152;11.584;2023-09-18T14:57:17;2.50;;;0.80;;
4452;SDS011;2239;48.152;11.584;2023-09-18T14:59:43;3.07;;;1.43;;
4452;SDS011;2239;48.152;11.584;2023-09-18T15:02:12;2.07;;;0.97;;
4452;SDS011;2239;48.152;11.584;2023-09-18T15:04:39;1.37;;;0.70;;
4452;SDS011;2239;48.152;11.584;2023-09-18T15:07:05;3.20;;;1.10;;
4452;SDS011;2239;48.152;11.584;2023-09-18T15:09:31;2.60;;;0.90;;
4452;SDS011;2239;48.152;11.584;2023-09-18T15:11:56;2.37;;;0.90;;
4452;SDS011;2239;48.152;11.584;2023-09-18T15:14:22;1.63;;;0.90;;